Time;durP1;ratioP1;P1;durP2;ratioP2;P2;SDS_P1;SDS_P2;PMS_P1;PMS_P2;Temp;Humidity;BMP_temperature;BMP_pressure;BME280_temperature;BME280_humidity;BME280_pressure;Samples;Min_cycle;Max_cycle;Signal;HPM_P1;HPM_P2
2022/04/17 00:00:10;;;;;;;;;;;15.10;54.50;;;;;;5029279;28;82385;-51
2022/04/17 00:02:36;;;;;;;;;;;15.10;54.00;;;;;;5029261;28;81920;-50
2022/04/17 00:05:03;;;;;;;;;;;15.00;53.90;;;;;;5028514;28;82776;-50
2022/04/17 00:07:29;;;;;;;;;;;15.00;53.90;;;;;;5028870;28;83429;-51
2022/04/17 00:09:55;;;;;;;;;;;15.00;53.90;;;;;;5029373;28;81828;-50
2022/04/17 00:12:23;;;;;;;;;;;15.10;53.90;;;;;;5029060;28;83150;-51
2022/04/17 00:14:49;;;;;;;;;;;15.00;53.90;;;;;;5028786;28;83417;-50
2022/04/17 00:17:15;;;;;;;;;;;15.00;54.00;;;;;;5031576;28;82029;-50
2022/04/17 00:19:41;;;;;;;;;;;15.00;53.90;;;;;;5028662;28;83616;-51
2022/04/17 00:22:07;;;;;;;;;;;15.00;54.00;;;;;;5029412;28;81079;-50
2022/04/17 00:24:33;;;;;;;;;;;14.90;54.00;;;;;;5028968;28;81969;-50
2022/04/17 00:27:00;;;;;;;;;;;14.90;54.00;;;;;;5028526;28;83548;-51
2022/04/17 00:29:26;;;;;;;;;;;14.90;54.10;;;;;;5028196;28;82696;-50
2022/04/17 00:31:52;;;;;;;;;;;14.90;54.00;;;;;;5028831;28;83866;-50
2022/04/17 00:34:19;;;;;;;;;;;14.90;54.00;;;;;;5028930;28;82512;-51
2022/04/17 00:36:45;;;;;;;;;;;14.80;53.90;;;;;;5034425;28;81792;-51
2022/04/17 00:39:12;;;;;;;;;;;14.80;54.00;;;;;;5032145;28;82475;-50
2022/04/17 00:41:38;;;;;;;;;;;14.80;53.90;;;;;;5032191;28;82144;-51
2022/04/17 00:44:10;;;;;;;;;;;14.80;53.90;;;;;;5032153;28;83195;-50
2022/04/17 00:46:36;;;;;;;;;;;14.80;53.80;;;;;;5032304;28;83060;-51
2022/04/17 00:49:01;;;;;;;;;;;14.80;54.00;;;;;;5032131;28;82005;-51
2022/04/17 00:51:27;;;;;;;;;;;14.80;53.90;;;;;;5032367;28;81784;-50
2022/04/17 00:53:53;;;;;;;;;;;14.80;54.60;;;;;;5030933;28;84546;-50
2022/04/17 00:56:19;;;;;;;;;;;14.70;54.10;;;;;;5032097;28;82201;-50
2022/04/17 00:58:45;;;;;;;;;;;14.70;54.10;;;;;;5034641;28;81795;-50
2022/04/17 01:01:10;;;;;;;;;;;14.70;54.10;;;;;;5031805;28;81859;-51
2022/04/17 01:03:37;;;;;;;;;;;14.70;54.10;;;;;;5032027;28;81808;-51
2022/04/17 01:06:03;;;;;;;;;;;14.70;54.10;;;;;;5031562;28;82625;-51
2022/04/17 01:08:28;;;;;;;;;;;14.70;54.10;;;;;;5031547;28;81821;-50
2022/04/17 01:10:54;;;;;;;;;;;14.60;54.00;;;;;;5032286;28;81922;-50
2022/04/17 01:13:20;;;;;;;;;;;14.60;53.80;;;;;;5031325;28;83394;-50
2022/04/17 01:15:46;;;;;;;;;;;14.60;53.90;;;;;;5031447;28;81839;-50
2022/04/17 01:18:11;;;;;;;;;;;14.60;53.90;;;;;;5031088;28;82936;-50
2022/04/17 01:20:38;;;;;;;;;;;14.60;54.00;;;;;;5034025;28;82365;-50
2022/04/17 01:28:33;;;;;;;;;;;14.50;54.00;;;;;;5031569;28;82102;-52
2022/04/17 01:30:58;;;;;;;;;;;14.50;54.00;;;;;;5031605;28;81948;-50
2022/04/17 01:33:24;;;;;;;;;;;14.50;54.10;;;;;;5031408;28;82500;-50
2022/04/17 01:35:49;;;;;;;;;;;14.50;54.10;;;;;;5031753;28;81130;-50
2022/04/17 01:38:15;;;;;;;;;;;14.50;54.20;;;;;;5030539;28;82306;-50
2022/04/17 01:40:41;;;;;;;;;;;14.50;54.20;;;;;;5030693;28;82438;-51
2022/04/17 01:43:08;;;;;;;;;;;14.50;54.20;;;;;;5033365;28;82782;-50
2022/04/17 01:45:34;;;;;;;;;;;14.40;54.00;;;;;;5030840;28;83652;-50
2022/04/17 01:48:00;;;;;;;;;;;14.50;54.20;;;;;;5030977;28;81770;-51
2022/04/17 01:50:27;;;;;;;;;;;14.40;54.10;;;;;;5031303;28;81823;-50
2022/04/17 01:52:53;;;;;;;;;;;14.40;54.20;;;;;;5030753;28;83272;-50
2022/04/17 01:55:19;;;;;;;;;;;14.40;54.20;;;;;;5030943;28;81900;-51
2022/04/17 01:57:44;;;;;;;;;;;14.30;54.30;;;;;;5031060;28;82937;-50
2022/04/17 02:00:11;;;;;;;;;;;14.30;54.30;;;;;;5031357;28;82854;-51
2022/04/17 02:02:36;;;;;;;;;;;14.30;54.20;;;;;;5030840;28;81864;-50
2022/04/17 02:05:02;;;;;;;;;;;14.30;54.30;;;;;;5033409;28;82963;-50
2022/04/17 02:07:28;;;;;;;;;;;14.30;54.30;;;;;;5030078;28;83362;-50
2022/04/17 02:09:54;;;;;;;;;;;14.30;54.30;;;;;;5030862;28;84072;-50
2022/04/17 02:12:19;;;;;;;;;;;14.30;54.30;;;;;;5030402;28;83977;-50
2022/04/17 02:14:46;;;;;;;;;;;14.30;54.30;;;;;;5030736;28;81786;-51
2022/04/17 02:17:13;;;;;;;;;;;14.30;54.40;;;;;;5030620;28;82650;-50
2022/04/17 02:19:39;;;;;;;;;;;14.30;54.40;;;;;;5030675;28;81753;-50
2022/04/17 02:22:05;;;;;;;;;;;14.20;54.40;;;;;;5030656;28;82134;-51
2022/04/17 02:24:32;;;;;;;;;;;14.20;54.40;;;;;;5033806;28;81214;-50
2022/04/17 02:26:57;;;;;;;;;;;14.20;54.50;;;;;;5030649;28;81903;-51
2022/04/17 02:29:24;;;;;;;;;;;14.20;54.50;;;;;;5030641;28;81813;-50
2022/04/17 02:31:49;;;;;;;;;;;14.20;54.60;;;;;;5029531;28;84193;-50
2022/04/17 02:34:15;;;;;;;;;;;14.10;54.50;;;;;;5030756;28;81753;-50
2022/04/17 02:36:40;;;;;;;;;;;14.10;54.60;;;;;;5030392;28;83041;-50
2022/04/17 02:39:06;;;;;;;;;;;14.10;54.50;;;;;;5030318;28;82478;-50
2022/04/17 02:41:32;;;;;;;;;;;14.10;54.50;;;;;;5030311;28;81840;-50
2022/04/17 02:43:57;;;;;;;;;;;14.10;54.60;;;;;;5030111;28;83093;-51
2022/04/17 02:49:07;;;;;;;;;;;14.10;54.60;;;;;;5030844;28;81551;-50
2022/04/17 02:51:33;;;;;;;;;;;14.10;54.60;;;;;;5030168;28;82641;-51
2022/04/17 02:53:59;;;;;;;;;;;14.10;54.70;;;;;;5030189;28;81859;-50
2022/04/17 02:56:24;;;;;;;;;;;14.10;54.60;;;;;;5029812;28;82877;-50
2022/04/17 02:58:52;;;;;;;;;;;14.00;54.60;;;;;;5029432;28;82498;-50
2022/04/17 03:06:47;;;;;;;;;;;14.00;54.80;;;;;;5030033;28;81971;-50
2022/04/17 03:09:12;;;;;;;;;;;14.00;54.80;;;;;;5032434;28;82183;-50
2022/04/17 03:11:38;;;;;;;;;;;14.00;54.80;;;;;;5029611;28;83320;-50
2022/04/17 03:14:03;;;;;;;;;;;13.90;54.80;;;;;;5030186;28;81240;-50
2022/04/17 03:16:29;;;;;;;;;;;13.90;54.80;;;;;;5029854;28;82334;-50
2022/04/17 03:18:55;;;;;;;;;;;13.90;54.80;;;;;;5029529;28;82707;-50
2022/04/17 03:21:20;;;;;;;;;;;13.90;54.90;;;;;;5029148;28;82898;-51
2022/04/17 03:23:46;;;;;;;;;;;13.90;54.80;;;;;;5029941;28;82818;-50
2022/04/17 03:26:12;;;;;;;;;;;13.90;54.90;;;;;;5029419;28;82263;-50
2022/04/17 03:28:37;;;;;;;;;;;13.80;54.80;;;;;;5029402;28;82017;-50
2022/04/17 03:31:04;;;;;;;;;;;13.80;54.90;;;;;;5032104;28;82757;-50
2022/04/17 03:33:31;;;;;;;;;;;13.80;55.00;;;;;;5029465;28;81886;-50
2022/04/17 03:35:56;;;;;;;;;;;13.80;55.00;;;;;;5029538;28;82928;-50
2022/04/17 03:38:22;;;;;;;;;;;13.80;54.90;;;;;;5029269;28;82890;-49
2022/04/17 03:40:48;;;;;;;;;;;13.80;55.00;;;;;;5029730;28;81797;-50
2022/04/17 03:43:13;;;;;;;;;;;13.70;55.00;;;;;;5029417;28;82936;-50
2022/04/17 03:45:39;;;;;;;;;;;13.70;55.00;;;;;;5028850;28;83421;-50
2022/04/17 03:48:05;;;;;;;;;;;13.70;55.00;;;;;;5029439;28;81805;-49
2022/04/17 03:50:31;;;;;;;;;;;13.70;55.10;;;;;;5029325;28;81863;-50
2022/04/17 03:52:57;;;;;;;;;;;13.70;55.00;;;;;;5031889;28;82808;-51
2022/04/17 03:55:23;;;;;;;;;;;13.70;55.00;;;;;;5029297;28;82008;-50
2022/04/17 03:57:49;;;;;;;;;;;13.70;55.10;;;;;;5029077;28;83728;-50
2022/04/17 04:00:16;;;;;;;;;;;13.70;55.20;;;;;;5029146;28;81821;-50
2022/04/17 04:02:42;;;;;;;;;;;13.70;55.20;;;;;;5029705;28;83243;-50
2022/04/17 04:05:09;;;;;;;;;;;13.70;55.20;;;;;;5028980;28;82703;-50
2022/04/17 04:07:35;;;;;;;;;;;13.60;55.30;;;;;;5029073;28;81816;-50
2022/04/17 04:10:02;;;;;;;;;;;13.60;55.30;;;;;;5029703;28;82761;-50
2022/04/17 04:12:28;;;;;;;;;;;13.60;55.20;;;;;;5032514;28;82439;-50
2022/04/17 04:14:54;;;;;;;;;;;13.60;55.20;;;;;;5035585;28;81876;-50
2022/04/17 04:17:19;;;;;;;;;;;13.60;55.30;;;;;;5032328;28;82410;-50
2022/04/17 04:19:45;;;;;;;;;;;13.60;55.30;;;;;;5032519;28;82184;-50
2022/04/17 04:22:11;;;;;;;;;;;13.60;55.40;;;;;;5032311;28;83231;-50
2022/04/17 04:24:37;;;;;;;;;;;13.60;55.40;;;;;;5032229;28;83658;-50
2022/04/17 04:29:47;;;;;;;;;;;13.50;55.40;;;;;;5032592;28;81834;-50
2022/04/17 04:32:12;;;;;;;;;;;13.50;55.50;;;;;;5031955;28;83586;-50
2022/04/17 04:34:38;;;;;;;;;;;13.50;55.50;;;;;;5034705;28;82900;-49
2022/04/17 04:37:04;;;;;;;;;;;13.50;55.60;;;;;;5031525;28;82638;-50
2022/04/17 04:39:30;;;;;;;;;;;13.50;55.60;;;;;;5032188;28;81806;-49
2022/04/17 04:41:55;;;;;;;;;;;13.50;55.60;;;;;;5032100;28;82901;-50
2022/04/17 04:44:21;;;;;;;;;;;13.50;55.50;;;;;;5032133;28;81866;-50
2022/04/17 04:46:46;;;;;;;;;;;13.40;55.50;;;;;;5032312;28;81934;-50
2022/04/17 04:49:30;;;;;;;;;;;13.40;55.60;;;;;;5032215;28;81818;-50
2022/04/17 04:51:57;;;;;;;;;;;13.40;55.60;;;;;;5032323;28;82772;-50
2022/04/17 04:54:23;;;;;;;;;;;13.40;55.80;;;;;;5031928;28;81844;-50
2022/04/17 04:56:49;;;;;;;;;;;13.30;55.90;;;;;;5034405;28;82088;-50
2022/04/17 04:59:14;;;;;;;;;;;13.30;55.90;;;;;;5031283;28;82965;-51
2022/04/17 05:01:41;;;;;;;;;;;13.30;56.00;;;;;;5032088;28;81783;-50
2022/04/17 05:04:06;;;;;;;;;;;13.30;56.00;;;;;;5031589;28;83462;-50
2022/04/17 05:06:32;;;;;;;;;;;13.30;56.10;;;;;;5032038;28;81826;-50
2022/04/17 05:08:58;;;;;;;;;;;13.30;56.10;;;;;;5031687;28;83059;-49
2022/04/17 05:11:23;;;;;;;;;;;13.30;56.10;;;;;;5031581;28;82406;-50
2022/04/17 05:13:49;;;;;;;;;;;13.30;56.20;;;;;;5031527;28;81815;-49
2022/04/17 05:16:14;;;;;;;;;;;13.20;56.30;;;;;;5031903;28;81790;-49
2022/04/17 05:18:40;;;;;;;;;;;13.20;56.30;;;;;;5033737;28;81832;-49
2022/04/17 05:21:06;;;;;;;;;;;13.20;56.30;;;;;;5030534;28;82094;-49
2022/04/17 05:23:32;;;;;;;;;;;13.20;56.30;;;;;;5029927;28;83970;-49
2022/04/17 05:25:59;;;;;;;;;;;13.20;56.40;;;;;;5030726;28;81808;-50
2022/04/17 05:28:24;;;;;;;;;;;13.20;56.50;;;;;;5030695;28;82959;-49
2022/04/17 05:30:50;;;;;;;;;;;13.20;56.50;;;;;;5030626;28;82573;-49
2022/04/17 05:33:20;;;;;;;;;;;13.10;56.60;;;;;;5030823;28;81804;-50
2022/04/17 05:35:45;;;;;;;;;;;13.10;56.60;;;;;;5030801;28;83000;-50
2022/04/17 05:38:11;;;;;;;;;;;13.10;56.70;;;;;;5030098;28;82416;-50
2022/04/17 05:40:41;;;;;;;;;;;13.10;56.70;;;;;;5033956;28;81081;-50
2022/04/17 05:43:06;;;;;;;;;;;13.10;56.70;;;;;;5030879;28;82406;-51
2022/04/17 05:45:32;;;;;;;;;;;13.10;56.70;;;;;;5030694;28;81869;-50
2022/04/17 05:47:58;;;;;;;;;;;13.10;56.70;;;;;;5029965;28;82888;-50
2022/04/17 05:50:24;;;;;;;;;;;13.10;56.80;;;;;;5030616;28;81824;-51
2022/04/17 05:52:51;;;;;;;;;;;13.10;56.90;;;;;;5030533;28;81854;-52
2022/04/17 05:55:16;;;;;;;;;;;13.10;56.90;;;;;;5030509;28;82951;-50
2022/04/17 05:57:42;;;;;;;;;;;13.10;56.90;;;;;;5030123;28;83620;-50
2022/04/17 06:00:08;;;;;;;;;;;13.00;56.90;;;;;;5030251;28;81857;-49
2022/04/17 06:02:35;;;;;;;;;;;13.00;57.00;;;;;;5032783;28;82325;-49
2022/04/17 06:05:01;;;;;;;;;;;13.00;56.90;;;;;;5030778;28;81049;-51
2022/04/17 06:07:28;;;;;;;;;;;13.00;57.00;;;;;;5030257;28;81841;-49
2022/04/17 06:09:53;;;;;;;;;;;13.00;57.10;;;;;;5030119;28;82930;-50
2022/04/17 06:12:19;;;;;;;;;;;13.00;57.20;;;;;;5029701;28;82810;-51
2022/04/17 06:14:44;;;;;;;;;;;13.00;57.20;;;;;;5030223;28;82891;-50
2022/04/17 06:17:10;;;;;;;;;;;13.00;57.30;;;;;;5029885;28;83382;-51
2022/04/17 06:19:36;;;;;;;;;;;13.00;57.30;;;;;;5030129;28;81835;-50
2022/04/17 06:22:02;;;;;;;;;;;12.90;57.40;;;;;;5029933;28;82982;-50
2022/04/17 06:24:27;;;;;;;;;;;12.90;57.50;;;;;;5032578;28;82453;-50
2022/04/17 06:26:53;;;;;;;;;;;12.90;57.40;;;;;;5029935;28;82018;-51
2022/04/17 06:29:19;;;;;;;;;;;12.90;57.60;;;;;;5030498;28;81744;-50
2022/04/17 06:31:45;;;;;;;;;;;12.90;57.50;;;;;;5029798;28;81861;-51
2022/04/17 06:34:12;;;;;;;;;;;12.90;57.60;;;;;;5029040;28;82068;-51
2022/04/17 06:36:38;;;;;;;;;;;12.90;57.70;;;;;;5029047;28;83464;-50
2022/04/17 06:39:04;;;;;;;;;;;12.90;57.70;;;;;;5029511;28;82410;-52
2022/04/17 06:41:29;;;;;;;;;;;12.90;57.80;;;;;;5029876;28;82910;-50
2022/04/17 06:43:55;;;;;;;;;;;12.80;57.80;;;;;;5032406;28;82596;-49
2022/04/17 06:46:20;;;;;;;;;;;12.80;57.80;;;;;;5029714;28;83290;-50
2022/04/17 06:48:46;;;;;;;;;;;12.80;58.00;;;;;;5029726;28;81763;-50
2022/04/17 06:51:11;;;;;;;;;;;12.80;58.00;;;;;;5030008;28;82085;-50
2022/04/17 06:53:37;;;;;;;;;;;12.80;57.90;;;;;;5030308;28;83115;-49
2022/04/17 06:56:02;;;;;;;;;;;12.80;58.00;;;;;;5029475;28;82653;-50
2022/04/17 06:58:28;;;;;;;;;;;12.80;58.10;;;;;;5029430;28;81827;-49
2022/04/17 07:00:53;;;;;;;;;;;12.80;58.10;;;;;;5029050;28;83152;-52
2022/04/17 07:03:19;;;;;;;;;;;12.80;58.10;;;;;;5029440;28;82679;-51
2022/04/17 07:05:45;;;;;;;;;;;12.80;58.20;;;;;;5032335;28;81897;-50
2022/04/17 07:08:10;;;;;;;;;;;12.70;58.10;;;;;;5029075;28;83503;-49
2022/04/17 07:10:37;;;;;;;;;;;12.70;58.10;;;;;;5029344;28;81822;-50
2022/04/17 07:13:03;;;;;;;;;;;12.70;58.30;;;;;;5029211;28;82942;-50
2022/04/17 07:15:29;;;;;;;;;;;12.70;58.30;;;;;;5029258;28;82145;-50
2022/04/17 07:17:55;;;;;;;;;;;12.60;58.30;;;;;;5029766;28;81209;-50
2022/04/17 07:20:20;;;;;;;;;;;12.70;58.40;;;;;;5029208;28;81802;-49
2022/04/17 07:22:47;;;;;;;;;;;12.70;58.40;;;;;;5028984;28;83416;-50
2022/04/17 07:25:13;;;;;;;;;;;12.70;58.40;;;;;;5028587;28;83288;-49
2022/04/17 07:27:39;;;;;;;;;;;12.70;58.40;;;;;;5031359;28;84067;-49
2022/04/17 07:30:09;;;;;;;;;;;12.60;58.40;;;;;;5029044;28;81819;-50
2022/04/17 07:32:34;;;;;;;;;;;12.60;58.40;;;;;;5028925;28;82069;-50
2022/04/17 07:35:00;;;;;;;;;;;12.60;58.50;;;;;;5029116;28;81898;-50
2022/04/17 07:37:26;;;;;;;;;;;12.60;58.50;;;;;;5028944;28;81824;-49
2022/04/17 07:39:51;;;;;;;;;;;12.60;58.50;;;;;;5029122;28;82884;-50
2022/04/17 07:42:19;;;;;;;;;;;12.60;58.60;;;;;;5029422;28;81710;-49
2022/04/17 07:44:45;;;;;;;;;;;12.60;58.60;;;;;;5031233;28;82155;-50
2022/04/17 07:47:10;;;;;;;;;;;12.60;58.60;;;;;;5032843;28;81902;-50
2022/04/17 07:49:36;;;;;;;;;;;12.60;58.60;;;;;;5034416;28;83588;-50
2022/04/17 07:52:01;;;;;;;;;;;12.60;58.70;;;;;;5032903;28;82056;-50
2022/04/17 07:54:27;;;;;;;;;;;12.60;58.70;;;;;;5032145;28;83408;-50
2022/04/17 07:56:53;;;;;;;;;;;12.60;58.80;;;;;;5032328;28;81846;-50
2022/04/17 07:59:18;;;;;;;;;;;12.50;58.90;;;;;;5032357;28;82827;-50
2022/04/17 08:01:46;;;;;;;;;;;12.50;58.80;;;;;;5032174;28;83405;-51
2022/04/17 08:04:11;;;;;;;;;;;12.60;59.00;;;;;;5032243;28;81856;-51
2022/04/17 08:06:37;;;;;;;;;;;12.50;58.80;;;;;;5032866;28;82915;-49
2022/04/17 08:09:03;;;;;;;;;;;12.50;58.90;;;;;;5031935;28;82482;-50
2022/04/17 08:11:29;;;;;;;;;;;12.50;58.80;;;;;;5034886;28;81893;-50
2022/04/17 08:13:55;;;;;;;;;;;12.50;58.90;;;;;;5031276;28;84948;-49
2022/04/17 08:16:21;;;;;;;;;;;12.50;58.90;;;;;;5031660;28;82034;-50
2022/04/17 08:18:46;;;;;;;;;;;12.50;58.80;;;;;;5032304;28;82165;-50
2022/04/17 08:21:12;;;;;;;;;;;12.50;59.00;;;;;;5031723;28;83126;-50
2022/04/17 08:23:38;;;;;;;;;;;12.50;59.00;;;;;;5032215;28;81820;-50
2022/04/17 08:26:06;;;;;;;;;;;12.50;58.90;;;;;;5032200;28;81805;-51
2022/04/17 08:28:32;;;;;;;;;;;12.50;59.00;;;;;;5031917;28;82607;-50
2022/04/17 08:30:58;;;;;;;;;;;12.50;59.10;;;;;;5032434;28;81229;-50
2022/04/17 08:33:26;;;;;;;;;;;12.50;59.10;;;;;;5034509;28;82074;-50
2022/04/17 08:35:55;;;;;;;;;;;12.50;59.10;;;;;;5031695;28;81839;-50
2022/04/17 08:38:22;;;;;;;;;;;12.40;59.10;;;;;;5030280;28;83105;-49
2022/04/17 08:40:48;;;;;;;;;;;12.40;59.10;;;;;;5031496;28;83375;-51
2022/04/17 08:43:13;;;;;;;;;;;12.40;59.10;;;;;;5031818;28;81899;-50
2022/04/17 08:45:39;;;;;;;;;;;12.40;59.20;;;;;;5031888;28;82318;-50
2022/04/17 08:48:05;;;;;;;;;;;12.40;59.30;;;;;;5031614;28;82548;-50
2022/04/17 08:50:31;;;;;;;;;;;12.40;59.40;;;;;;5031447;28;81696;-50
2022/04/17 08:52:58;;;;;;;;;;;12.30;59.30;;;;;;5033927;28;83062;-50
2022/04/17 08:55:23;;;;;;;;;;;12.30;59.30;;;;;;5031169;28;81168;-50
2022/04/17 08:57:49;;;;;;;;;;;12.30;59.40;;;;;;5031352;28;82317;-51
2022/04/17 09:00:18;;;;;;;;;;;12.30;59.30;;;;;;5031849;28;82381;-51
2022/04/17 09:02:44;;;;;;;;;;;12.30;59.20;;;;;;5030639;28;82771;-51
2022/04/17 09:05:11;;;;;;;;;;;12.30;59.40;;;;;;5031372;28;84020;-50
2022/04/17 09:07:50;;;;;;;;;;;12.30;59.40;;;;;;5031020;28;82594;-50
2022/04/17 09:10:31;;;;;;;;;;;12.30;59.40;;;;;;5031146;28;81783;-50
2022/04/17 09:12:59;;;;;;;;;;;12.20;59.50;;;;;;5031515;28;81780;-50
2022/04/17 09:15:34;;;;;;;;;;;12.30;59.40;;;;;;5033595;28;83740;-51
2022/04/17 09:18:01;;;;;;;;;;;12.20;59.30;;;;;;5031387;28;81782;-53
2022/04/17 09:20:27;;;;;;;;;;;12.20;59.50;;;;;;5031554;28;82979;-52
2022/04/17 09:22:54;;;;;;;;;;;12.20;59.50;;;;;;5031278;28;81805;-50
2022/04/17 09:25:23;;;;;;;;;;;12.20;59.40;;;;;;5031002;28;83317;-50
2022/04/17 09:27:54;;;;;;;;;;;12.20;59.40;;;;;;5030023;28;84534;-51
2022/04/17 09:30:24;;;;;;;;;;;12.20;59.50;;;;;;5030970;28;81848;-50
2022/04/17 09:32:52;;;;;;;;;;;12.20;59.50;;;;;;5030828;28;82955;-50
2022/04/17 09:35:21;;;;;;;;;;;12.20;59.60;;;;;;5030986;28;83082;-50
2022/04/17 09:37:46;;;;;;;;;;;12.20;59.50;;;;;;5033387;28;81986;-50
2022/04/17 09:40:12;;;;;;;;;;;12.20;59.50;;;;;;5030615;28;82636;-49
2022/04/17 09:42:38;;;;;;;;;;;12.10;59.60;;;;;;5030696;28;81828;-53
2022/04/17 09:45:06;;;;;;;;;;;12.20;59.60;;;;;;5031294;28;82788;-50
2022/04/17 09:47:32;;;;;;;;;;;12.20;59.70;;;;;;5030488;28;82781;-49
2022/04/17 09:50:00;;;;;;;;;;;12.20;59.70;;;;;;5030680;28;81876;-50
2022/04/17 09:52:29;;;;;;;;;;;12.10;59.80;;;;;;5030236;28;82665;-50
2022/04/17 09:54:54;;;;;;;;;;;12.20;60.40;;;;;;5030653;28;81868;-50
2022/04/17 09:57:29;;;;;;;;;;;12.20;59.70;;;;;;5030473;28;81826;-51
2022/04/17 09:59:56;;;;;;;;;;;12.20;59.80;;;;;;5033204;28;81827;-50
2022/04/17 10:02:22;;;;;;;;;;;12.20;60.00;;;;;;5030526;28;81832;-49
2022/04/17 10:04:48;;;;;;;;;;;12.20;60.00;;;;;;5030481;28;82232;-51
2022/04/17 10:07:14;;;;;;;;;;;12.10;59.80;;;;;;5028608;28;82601;-52
2022/04/17 10:09:40;;;;;;;;;;;12.10;59.90;;;;;;5030582;28;81043;-49
2022/04/17 10:12:06;;;;;;;;;;;12.10;59.90;;;;;;5030547;28;82139;-50
2022/04/17 10:14:32;;;;;;;;;;;12.10;60.00;;;;;;5030194;28;83251;-51
2022/04/17 10:16:58;;;;;;;;;;;12.10;60.00;;;;;;5029939;28;82733;-51
2022/04/17 10:19:24;;;;;;;;;;;12.10;60.20;;;;;;5030642;28;82764;-52
2022/04/17 10:21:50;;;;;;;;;;;12.10;60.10;;;;;;5032728;28;81952;-53
2022/04/17 10:24:17;;;;;;;;;;;12.10;60.20;;;;;;5030097;28;82803;-51
2022/04/17 10:26:47;;;;;;;;;;;12.10;60.20;;;;;;5030042;28;83628;-50
2022/04/17 10:29:19;;;;;;;;;;;12.10;60.20;;;;;;5030029;28;81942;-50
2022/04/17 10:31:47;;;;;;;;;;;12.00;60.30;;;;;;5029830;28;82005;-50
2022/04/17 10:34:32;;;;;;;;;;;12.10;60.40;;;;;;5030490;28;81681;-51
2022/04/17 10:37:17;;;;;;;;;;;12.10;60.30;;;;;;5029597;28;81853;-51
2022/04/17 10:39:46;;;;;;;;;;;12.00;60.50;;;;;;5029849;28;83003;-50
2022/04/17 10:42:12;;;;;;;;;;;12.00;60.70;;;;;;5028883;28;84654;-51
2022/04/17 10:44:41;;;;;;;;;;;12.00;60.70;;;;;;5032332;28;81835;-51
2022/04/17 10:47:16;;;;;;;;;;;12.00;60.90;;;;;;5029628;28;82712;-52
2022/04/17 10:49:54;;;;;;;;;;;12.00;60.80;;;;;;5029525;28;81846;-51
2022/04/17 10:52:27;;;;;;;;;;;12.00;60.80;;;;;;5029525;28;82926;-53
2022/04/17 10:54:53;;;;;;;;;;;12.00;61.00;;;;;;5029380;28;83607;-50
2022/04/17 10:57:23;;;;;;;;;;;11.90;61.00;;;;;;5029796;28;82245;-50
2022/04/17 10:59:48;;;;;;;;;;;11.90;61.00;;;;;;5029942;28;83099;-51
2022/04/17 11:02:17;;;;;;;;;;;11.90;61.00;;;;;;5029307;28;83447;-50
2022/04/17 11:04:55;;;;;;;;;;;11.90;60.90;;;;;;5032223;28;81803;-52
2022/04/17 11:07:21;;;;;;;;;;;11.90;61.20;;;;;;5028707;28;83561;-50
2022/04/17 11:09:46;;;;;;;;;;;11.90;61.30;;;;;;5029528;28;82305;-50
2022/04/17 11:12:18;;;;;;;;;;;11.80;61.20;;;;;;5029450;28;82049;-50
2022/04/17 11:14:54;;;;;;;;;;;11.80;61.30;;;;;;5029175;28;83581;-50
2022/04/17 11:17:23;;;;;;;;;;;11.90;61.30;;;;;;5029301;28;81851;-51
2022/04/17 11:19:49;;;;;;;;;;;11.90;61.40;;;;;;5028926;28;82866;-50
2022/04/17 11:22:16;;;;;;;;;;;11.80;61.50;;;;;;5029025;28;83523;-50
2022/04/17 11:25:03;;;;;;;;;;;11.80;61.30;;;;;;5029897;28;81101;-52
2022/04/17 11:27:31;;;;;;;;;;;11.80;61.30;;;;;;5031611;28;81824;-50
2022/04/17 11:33:00;;;;;;;;;;;11.80;61.50;;;;;;5006147;28;82782;-51
2022/04/17 11:38:29;;;;;;;;;;;11.80;61.50;;;;;;4998587;28;81940;-50
2022/04/17 11:44:06;;;;;;;;;;;11.80;61.60;;;;;;5006557;28;81708;-52
2022/04/17 11:49:40;;;;;;;;;;;11.80;61.60;;;;;;5006446;28;81773;-50
2022/04/17 11:55:09;;;;;;;;;;;11.80;61.60;;;;;;5006580;28;81676;-51
2022/04/17 12:00:38;;;;;;;;;;;11.70;61.70;;;;;;5005887;28;82600;-52
2022/04/17 12:06:09;;;;;;;;;;;11.70;61.80;;;;;;5006357;28;81958;-50
2022/04/17 12:11:39;;;;;;;;;;;11.70;61.80;;;;;;5006277;28;81689;-50
2022/04/17 12:17:08;;;;;;;;;;;11.60;62.00;;;;;;5009071;28;81737;-50
2022/04/17 12:22:37;;;;;;;;;;;11.70;61.80;;;;;;5006360;28;81677;-50
2022/04/17 12:28:06;;;;;;;;;;;11.60;61.90;;;;;;5005195;28;82681;-51
2022/04/17 12:33:34;;;;;;;;;;;11.60;61.90;;;;;;5009594;28;81649;-51
2022/04/17 12:39:03;;;;;;;;;;;11.60;62.00;;;;;;5004182;28;81921;-49
2022/04/17 12:44:33;;;;;;;;;;;11.60;62.00;;;;;;5009441;28;81740;-51
2022/04/17 12:50:03;;;;;;;;;;;11.60;61.90;;;;;;5008942;28;81967;-50
2022/04/17 12:55:32;;;;;;;;;;;11.50;61.90;;;;;;5008558;28;82642;-50
2022/04/17 12:57:58;;;;;;;;;;;11.50;61.90;;;;;;4927129;28;135848;-51
2022/04/17 13:03:34;;;;;;;;;;;11.40;62.10;;;;;;4971934;28;81695;-50
2022/04/17 13:09:06;;;;;;;;;;;11.40;62.00;;;;;;4969516;28;82967;-50
2022/04/17 13:14:54;;;;;;;;;;;11.40;61.90;;;;;;4969755;28;80869;-50
2022/04/17 13:20:23;;;;;;;;;;;11.40;61.80;;;;;;4969099;28;81850;-51
2022/04/17 13:25:52;;;;;;;;;;;11.30;62.00;;;;;;4969241;28;82345;-53
2022/04/17 13:31:20;;;;;;;;;;;11.20;62.00;;;;;;4969127;28;81732;-50
2022/04/17 13:38:10;;;;;;;;;;;11.20;61.90;;;;;;4969100;28;81693;-50
2022/04/17 13:39:34;;;;;;;;;;;11.20;61.80;;;;;;4971594;28;82071;-50
2022/04/17 13:45:03;;;;;;;;;;;11.20;61.90;;;;;;4968980;28;81598;-50
2022/04/17 13:50:31;;;;;;;;;;;11.20;62.00;;;;;;4968033;28;83005;-52
2022/04/17 13:56:01;;;;;;;;;;;11.20;61.80;;;;;;4968732;28;81815;-51
2022/04/17 14:01:29;;;;;;;;;;;11.10;61.90;;;;;;4968716;28;81750;-50
2022/04/17 14:06:58;;;;;;;;;;;11.10;61.70;;;;;;4968563;28;81736;-50
2022/04/17 14:12:27;;;;;;;;;;;11.00;61.80;;;;;;4968241;28;82113;-49
2022/04/17 14:17:55;;;;;;;;;;;11.00;61.60;;;;;;4970277;28;82626;-50
2022/04/17 14:23:24;;;;;;;;;;;11.00;61.60;;;;;;4968206;28;81607;-49
2022/04/17 14:28:52;;;;;;;;;;;10.90;61.50;;;;;;4968377;28;81580;-50
2022/04/17 14:34:21;;;;;;;;;;;10.90;61.20;;;;;;4967874;28;81731;-50
2022/04/17 14:39:50;;;;;;;;;;;10.90;61.90;;;;;;4960559;28;83229;-50
2022/04/17 14:45:25;;;;;;;;;;;10.80;61.40;;;;;;4967721;28;82675;-50
2022/04/17 14:50:55;;;;;;;;;;;10.80;61.40;;;;;;4967900;28;81690;-50
2022/04/17 14:56:24;;;;;;;;;;;10.70;61.40;;;;;;4967538;28;81738;-50
2022/04/17 15:01:56;;;;;;;;;;;10.80;61.30;;;;;;4967692;28;81869;-49
2022/04/17 15:07:24;;;;;;;;;;;10.70;61.30;;;;;;4970471;28;81639;-52
2022/04/17 15:12:54;;;;;;;;;;;10.70;61.20;;;;;;4966864;28;82715;-50
2022/04/17 15:18:23;;;;;;;;;;;10.70;61.20;;;;;;4967443;28;81923;-50
2022/04/17 15:23:51;;;;;;;;;;;10.60;61.30;;;;;;4967578;28;81683;-49
2022/04/17 15:29:20;;;;;;;;;;;10.60;61.10;;;;;;4970050;28;81753;-49
2022/04/17 15:34:49;;;;;;;;;;;10.60;61.20;;;;;;4967386;28;81818;-49
2022/04/17 15:40:18;;;;;;;;;;;10.60;61.20;;;;;;4961867;28;82909;-51
2022/04/17 15:51:35;;;;;;;;;;;10.50;61.10;;;;;;4967014;28;81618;-49
2022/04/17 15:57:03;;;;;;;;;;;10.50;61.10;;;;;;4967005;28;81673;-51
2022/04/17 16:02:32;;;;;;;;;;;10.50;60.90;;;;;;4966866;28;81730;-49
2022/04/17 16:08:01;;;;;;;;;;;10.40;60.90;;;;;;4972068;28;82715;-49
2022/04/17 16:13:30;;;;;;;;;;;10.50;60.90;;;;;;4970142;28;81666;-50
2022/04/17 16:18:58;;;;;;;;;;;10.40;60.90;;;;;;4972713;28;82015;-50
2022/04/17 16:24:27;;;;;;;;;;;10.40;61.00;;;;;;4970053;28;81966;-49
2022/04/17 16:29:55;;;;;;;;;;;10.40;61.00;;;;;;4969861;28;81629;-50
2022/04/17 16:35:24;;;;;;;;;;;10.40;60.90;;;;;;4969382;28;82659;-49
2022/04/17 16:40:52;;;;;;;;;;;10.30;60.80;;;;;;4963845;28;81876;-49
2022/04/17 16:46:20;;;;;;;;;;;10.30;60.70;;;;;;4969574;28;81958;-49
2022/04/17 16:51:49;;;;;;;;;;;10.30;60.70;;;;;;4970038;28;81777;-50
2022/04/17 17:03:04;;;;;;;;;;;10.20;60.70;;;;;;4968560;28;82811;-49
2022/04/17 17:08:33;;;;;;;;;;;10.20;60.60;;;;;;4971695;28;81820;-50
2022/04/17 17:14:02;;;;;;;;;;;10.20;60.70;;;;;;4969328;28;81682;-50
2022/04/17 17:19:32;;;;;;;;;;;10.10;60.70;;;;;;4969261;28;81798;-50
2022/04/17 17:25:03;;;;;;;;;;;10.10;60.60;;;;;;4969245;28;81839;-50
2022/04/17 17:30:32;;;;;;;;;;;10.00;60.40;;;;;;4968457;28;82631;-51
2022/04/17 17:36:04;;;;;;;;;;;10.00;60.40;;;;;;4969267;28;81683;-49
2022/04/17 17:41:32;;;;;;;;;;;10.00;60.50;;;;;;4966017;28;81886;-50
2022/04/17 17:47:01;;;;;;;;;;;9.90;60.30;;;;;;4968578;28;81837;-50
2022/04/17 17:52:31;;;;;;;;;;;9.90;60.30;;;;;;4968843;28;81697;-49
2022/04/17 17:58:01;;;;;;;;;;;9.90;60.20;;;;;;4968136;28;82657;-49
2022/04/17 18:03:29;;;;;;;;;;;9.80;60.00;;;;;;4968575;28;81681;-49
2022/04/17 18:14:46;;;;;;;;;;;9.70;60.00;;;;;;4968438;28;81716;-50
2022/04/17 18:20:15;;;;;;;;;;;9.70;59.90;;;;;;4970993;28;81688;-48
2022/04/17 18:25:45;;;;;;;;;;;9.70;59.90;;;;;;4967639;28;82693;-48